Time,TemperatureF,DewpointF,PressureIn,WindDirection,WindDirectionDegrees,WindSpeedMPH,WindSpeedGustMPH,Humidity,HourlyPrecipIn,Conditions,Clouds,dailyrainin,SolarRadiationWatts/m^2,SoftwareType,DateUTC
2013-10-01 00:03:00,57.8,53.0,30.11,NE,41,0.0,0.0,84,0.00,,CLR,0.00,0.00,VWS V14.00,2013-10-01 04:03:00,
2013-10-01 00:08:00,57.6,52.8,30.11,NE,41,0.0,0.0,84,0.00,,CLR,0.00,0.00,VWS V14.00,2013-10-01 04:08:00,
2013-10-01 00:13:00,57.5,52.7,30.11,NE,41,0.0,0.0,84,0.00,,CLR,0.00,0.00,VWS V14.00,2013-10-01 04:13:00,
2013-10-01 00:18:00,57.5,52.7,30.11,NE,41,0.0,0.0,84,0.00,,CLR,0.00,0.00,VWS V14.00,2013-10-01 04:18:00,
2013-10-01 00:23:00,57.3,52.5,30.11,NE,41,0.0,0.0,84,0.00,,CLR,0.00,0.00,VWS V14.00,2013-10-01 04:23:00,
2013-10-01 00:28:00,57.2,52.4,30.11,NE,41,0.0,0.0,84,0.00,,CLR,0.00,0.00,VWS V14.00,2013-10-01 04:28:00,
2013-10-01 00:33:00,57.2,52.7,30.10,NE,41,0.0,0.0,85,0.00,,CLR,0.00,0.00,VWS V14.00,2013-10-01 04:33:00,
2013-10-01 00:38:00,57.2,52.7,30.10,NE,41,0.0,0.0,85,0.00,,CLR,0.00,0.00,VWS V14.00,2013-10-01 04:38:00,
2013-10-01 00:43:00,57.2,53.1,30.10,NE,41,0.0,0.0,86,0.00,,,0.00,0.00,VWS V14.00,2013-10-01 04:43:00,
2013-10-01 00:48:00,57.0,52.9,30.10,NE,41,0.0,0.0,86,0.00,,,0.00,0.00,VWS V14.00,2013-10-01 04:48:00,
2013-10-01 00:53:00,57.0,52.9,30.10,NE,41,0.0,0.0,86,0.00,,,0.00,0.00,VWS V14.00,2013-10-01 04:53:00,
2013-10-01 00:58:00,57.0,52.9,30.10,NE,41,0.0,0.0,86,0.00,,,0.00,0.00,VWS V14.00,2013-10-01 04:58:00,
2013-10-01 01:03:00,56.9,52.8,30.10,NE,41,0.0,0.0,86,0.00,,FEW002,0.00,0.00,VWS V14.00,2013-10-01 05:03:00,
2013-10-01 01:08:00,56.9,53.1,30.10,NE,41,0.0,0.0,87,0.00,,FEW002,0.00,0.00,VWS V14.00,2013-10-01 05:08:00,
2013-10-01 01:13:00,56.9,53.1,30.10,NE,41,0.0,0.0,87,0.00,,FEW002,0.00,0.00,VWS V14.00,2013-10-01 05:13:00,
2013-10-01 01:18:00,56.7,52.9,30.10,NE,41,0.0,0.0,87,0.00,,FEW002,0.00,0.00,VWS V14.00,2013-10-01 05:18:00,
2013-10-01 01:23:00,56.7,52.9,30.10,NE,41,0.0,0.0,87,0.00,,FEW002,0.00,0.00,VWS V14.00,2013-10-01 05:23:00,
2013-10-01 01:28:00,56.7,52.9,30.10,NE,41,0.0,0.0,87,0.00,,FEW002,0.00,0.00,VWS V14.00,2013-10-01 05:28:00,
2013-10-01 01:33:00,56.6,52.8,30.10,NE,41,0.0,0.0,87,0.00,,FEW002,0.00,0.00,VWS V14.00,2013-10-01 05:33:00,
2013-10-01 01:38:00,56.6,52.8,30.10,NE,41,0.0,0.0,87,0.00,,FEW002,0.00,0.00,VWS V14.00,2013-10-01 05:38:00,
2013-10-01 01:43:00,56.5,52.7,30.10,NE,41,0.0,0.0,87,0.00,,FEW002,0.00,0.00,VWS V14.00,2013-10-01 05:43:00,
2013-10-01 01:49:00,56.3,52.5,30.10,NE,41,0.0,0.0,87,0.00,,FEW002,0.00,0.00,VWS V14.00,2013-10-01 05:49:00,
2013-10-01 01:54:00,56.2,52.4,30.10,NE,41,0.0,0.0,87,0.00,,FEW002,0.00,0.00,VWS V14.00,2013-10-01 05:54:00,
2013-10-01 01:59:00,56.0,52.2,30.10,NE,41,0.0,0.0,87,0.00,,FEW002,0.00,0.00,VWS V14.00,2013-10-01 05:59:00,
2013-10-01 02:04:00,56.0,52.2,30.10,NE,41,0.0,0.0,87,0.00,,,0.00,0.00,VWS V14.00,2013-10-01 06:04:00,
2013-10-01 02:09:00,55.9,52.1,30.10,NE,41,0.0,0.0,87,0.00,,,0.00,0.00,VWS V14.00,2013-10-01 06:09:00,
2013-10-01 02:14:00,55.9,52.1,30.10,NE,41,0.0,0.0,87,0.00,,,0.00,0.00,VWS V14.00,2013-10-01 06:14:00,
2013-10-01 02:19:00,55.7,51.9,30.10,NE,41,0.0,0.0,87,0.00,,,0.00,0.00,VWS V14.00,2013-10-01 06:19:00,
2013-10-01 02:24:00,55.7,52.2,30.10,NE,41,0.0,0.0,88,0.00,,,0.00,0.00,VWS V14.00,2013-10-01 06:24:00,
2013-10-01 02:29:00,55.7,52.2,30.10,NE,41,0.0,0.0,88,0.00,,,0.00,0.00,VWS V14.00,2013-10-01 06:29:00,
2013-10-01 02:34:00,55.6,52.1,30.10,NE,41,0.0,0.0,88,0.00,,,0.00,0.00,VWS V14.00,2013-10-01 06:34:00,
2013-10-01 02:39:00,55.6,52.1,30.10,NE,41,0.0,0.0,88,0.00,,,0.00,0.00,VWS V14.00,2013-10-01 06:39:00,
2013-10-01 02:44:00,55.6,52.1,30.10,NE,41,0.0,0.0,88,0.00,,SCT002,0.00,0.00,VWS V14.00,2013-10-01 06:44:00,
2013-10-01 02:49:00,55.6,52.1,30.10,NE,41,0.0,0.0,88,0.00,,SCT002,0.00,0.00,VWS V14.00,2013-10-01 06:49:00,
2013-10-01 02:54:00,55.6,52.1,30.10,NE,41,0.0,0.0,88,0.00,,SCT002,0.00,0.00,VWS V14.00,2013-10-01 06:54:00,
2013-10-01 02:59:00,55.4,51.9,30.10,NE,41,0.0,0.0,88,0.00,,SCT002,0.00,0.00,VWS V14.00,2013-10-01 06:59:00,
2013-10-01 03:04:00,55.4,51.9,30.10,NE,41,0.0,0.0,88,0.00,,SCT002,0.00,0.00,VWS V14.00,2013-10-01 07:04:00,
2013-10-01 03:09:00,55.4,51.9,30.10,NE,41,0.0,0.0,88,0.00,,SCT002,0.00,0.00,VWS V14.00,2013-10-01 07:09:00,
2013-10-01 03:14:00,55.3,51.8,30.10,NE,41,0.0,0.0,88,0.00,,SCT002,0.00,0.00,VWS V14.00,2013-10-01 07:14:00,
2013-10-01 03:19:00,55.3,52.1,30.10,NE,41,0.0,0.0,89,0.00,,SCT002,0.00,0.00,VWS V14.00,2013-10-01 07:19:00,
2013-10-01 03:24:00,55.3,52.1,30.10,NE,41,0.0,0.0,89,0.00,,SCT002,0.00,0.00,VWS V14.00,2013-10-01 07:24:00,
2013-10-01 03:29:00,55.3,52.1,30.10,NE,41,0.0,0.0,89,0.00,,SCT002,0.00,0.00,VWS V14.00,2013-10-01 07:29:00,
2013-10-01 03:34:00,55.3,52.1,30.10,NE,41,0.0,0.0,89,0.00,,,0.00,0.00,VWS V14.00,2013-10-01 07:34:00,
2013-10-01 03:39:00,55.3,52.1,30.10,NE,41,0.0,0.0,89,0.00,,,0.00,0.00,VWS V14.00,2013-10-01 07:39:00,
2013-10-01 03:44:00,55.3,52.4,30.10,NE,41,0.0,0.0,90,0.00,,,0.00,0.00,VWS V14.00,2013-10-01 07:44:00,
2013-10-01 03:49:00,55.4,52.5,30.10,NE,41,0.0,0.0,90,0.00,,,0.00,0.00,VWS V14.00,2013-10-01 07:49:00,
2013-10-01 03:54:00,55.4,52.5,30.10,NE,41,0.0,0.0,90,0.00,,,0.00,0.00,VWS V14.00,2013-10-01 07:54:00,
2013-10-01 03:59:00,55.4,52.5,30.10,NE,41,0.0,0.0,90,0.00,,,0.00,0.00,VWS V14.00,2013-10-01 07:59:00,
2013-10-01 04:04:00,55.4,52.5,30.09,NE,41,0.0,0.0,90,0.00,,,0.00,0.00,VWS V14.00,2013-10-01 08:04:00,
2013-10-01 04:09:00,55.6,52.7,30.09,NE,41,0.0,0.0,90,0.00,,,0.00,0.00,VWS V14.00,2013-10-01 08:09:00,
2013-10-01 04:14:00,55.6,53.0,30.09,NE,41,0.0,0.0,91,0.00,,,0.00,0.00,VWS V14.00,2013-10-01 08:14:00,
2013-10-01 04:19:00,55.7,53.1,30.09,NE,41,0.0,0.0,91,0.00,,,0.00,0.00,VWS V14.00,2013-10-01 08:19:00,
2013-10-01 04:24:00,55.7,53.1,30.09,NE,41,0.0,0.0,91,0.00,,,0.00,0.00,VWS V14.00,2013-10-01 08:24:00,
2013-10-01 04:29:00,55.7,53.1,30.09,NE,41,0.0,0.0,91,0.00,,,0.00,0.00,VWS V14.00,2013-10-01 08:29:00,
2013-10-01 04:34:00,55.9,53.3,30.10,NE,41,0.0,0.0,91,0.00,,,0.00,0.00,VWS V14.00,2013-10-01 08:34:00,
2013-10-01 04:39:00,55.9,53.3,30.10,NE,41,0.0,0.0,91,0.00,,,0.00,0.00,VWS V14.00,2013-10-01 08:39:00,
2013-10-01 04:44:00,55.9,53.3,30.10,NE,41,0.0,0.0,91,0.00,,,0.00,0.00,VWS V14.00,2013-10-01 08:44:00,
2013-10-01 04:49:00,55.9,53.3,30.10,NE,41,0.0,0.0,91,0.00,,,0.00,0.00,VWS V14.00,2013-10-01 08:49:00,
2013-10-01 04:54:00,55.9,53.3,30.10,NE,41,0.0,0.0,91,0.00,,,0.00,0.00,VWS V14.00,2013-10-01 08:54:00,
2013-10-01 04:59:00,55.9,53.3,30.10,NE,41,0.0,0.0,91,0.00,,,0.00,0.00,VWS V14.00,2013-10-01 08:59:00,
2013-10-01 05:04:00,55.9,53.3,30.10,NE,41,0.0,0.0,91,0.00,,FEW003,0.00,0.00,VWS V14.00,2013-10-01 09:04:00,
2013-10-01 05:09:00,55.9,53.3,30.10,NE,41,0.0,0.0,91,0.00,,FEW003,0.00,0.00,VWS V14.00,2013-10-01 09:09:00,
2013-10-01 05:14:00,55.9,53.3,30.10,NE,41,0.0,0.0,91,0.00,,FEW003,0.00,0.00,VWS V14.00,2013-10-01 09:14:00,
2013-10-01 05:20:00,55.9,53.3,30.10,NE,41,0.0,0.0,91,0.00,,FEW003,0.00,0.00,VWS V14.00,2013-10-01 09:20:00,
2013-10-01 05:25:00,55.9,53.3,30.10,NE,41,0.0,0.0,91,0.00,,FEW003,0.00,0.00,VWS V14.00,2013-10-01 09:25:00,
2013-10-01 05:30:00,55.9,53.3,30.11,NE,41,0.0,0.0,91,0.00,,FEW003,0.00,0.00,VWS V14.00,2013-10-01 09:30:00,
2013-10-01 05:35:00,55.9,53.3,30.11,NE,41,0.0,0.0,91,0.00,,,0.00,0.00,VWS V14.00,2013-10-01 09:35:00,
2013-10-01 05:40:00,55.9,53.3,30.11,NE,41,0.0,0.0,91,0.00,,,0.00,0.00,VWS V14.00,2013-10-01 09:40:00,
2013-10-01 05:45:00,55.7,53.1,30.11,NE,41,0.0,0.0,91,0.00,,,0.00,0.00,VWS V14.00,2013-10-01 09:45:00,
2013-10-01 05:50:00,55.7,53.1,30.11,NE,41,0.0,0.0,91,0.00,,,0.00,0.00,VWS V14.00,2013-10-01 09:50:00,
2013-10-01 05:55:00,55.7,53.1,30.11,NE,41,0.0,0.0,91,0.00,,,0.00,0.00,VWS V14.00,2013-10-01 09:55:00,
2013-10-01 06:00:00,55.7,53.1,30.12,NE,41,0.0,0.0,91,0.00,,,0.00,0.00,VWS V14.00,2013-10-01 10:00:00,
2013-10-01 06:05:00,55.6,53.0,30.12,NE,41,0.0,0.0,91,0.00,,,0.00,0.00,VWS V14.00,2013-10-01 10:05:00,
2013-10-01 06:10:00,55.6,53.0,30.12,NE,41,0.0,0.0,91,0.00,,,0.00,0.00,VWS V14.00,2013-10-01 10:10:00,
2013-10-01 06:15:00,55.6,53.0,30.13,NE,41,0.0,0.0,91,0.00,,,0.00,0.00,VWS V14.00,2013-10-01 10:15:00,
2013-10-01 06:20:00,55.6,53.0,30.13,NE,41,0.0,0.0,91,0.00,,,0.00,0.00,VWS V14.00,2013-10-01 10:20:00,
2013-10-01 06:25:00,55.6,53.0,30.13,NE,41,0.0,0.0,91,0.00,,,0.00,0.00,VWS V14.00,2013-10-01 10:25:00,
2013-10-01 06:30:00,55.6,53.0,30.13,NE,41,0.0,0.0,91,0.00,,,0.00,0.00,VWS V14.00,2013-10-01 10:30:00,
2013-10-01 06:35:00,55.6,53.3,30.13,NE,41,0.0,0.0,92,0.00,,,0.00,0.00,VWS V14.00,2013-10-01 10:35:00,
2013-10-01 06:40:00,55.6,53.3,30.13,NE,41,0.0,0.0,92,0.00,,,0.00,0.00,VWS V14.00,2013-10-01 10:40:00,
2013-10-01 06:45:00,55.6,53.3,30.13,NE,41,0.0,0.0,92,0.00,,,0.00,0.00,VWS V14.00,2013-10-01 10:45:00,
2013-10-01 06:50:00,55.6,53.3,30.13,NE,41,0.0,0.0,92,0.00,,,0.00,0.00,VWS V14.00,2013-10-01 10:50:00,
2013-10-01 06:55:00,55.6,53.3,30.13,NE,41,0.0,0.0,92,0.00,,,0.00,0.00,VWS V14.00,2013-10-01 10:55:00,
2013-10-01 07:00:00,55.6,53.3,30.14,NE,41,0.0,0.0,92,0.00,,,0.00,0.00,VWS V14.00,2013-10-01 11:00:00,
2013-10-01 07:05:00,55.4,53.1,30.14,NE,41,0.0,0.0,92,0.00,,,0.00,0.00,VWS V14.00,2013-10-01 11:05:00,
2013-10-01 07:10:00,55.4,53.1,30.14,NE,41,0.0,0.0,92,0.00,,,0.00,0.00,VWS V14.00,2013-10-01 11:10:00,
2013-10-01 07:16:00,55.3,53.0,30.15,NE,41,0.0,0.0,92,0.00,,,0.00,0.00,VWS V14.00,2013-10-01 11:16:00,
2013-10-01 07:20:00,55.3,53.0,30.15,NE,41,0.0,0.0,92,0.00,,,0.00,0.00,VWS V14.00,2013-10-01 11:20:00,
2013-10-01 07:26:00,55.1,52.8,30.15,NE,41,0.0,0.0,92,0.00,,,0.00,0.00,VWS V14.00,2013-10-01 11:26:00,
2013-10-01 07:31:00,55.1,52.8,30.15,NE,41,0.0,0.0,92,0.00,,,0.00,0.00,VWS V14.00,2013-10-01 11:31:00,
2013-10-01 07:36:00,55.0,52.7,30.15,NE,41,0.0,0.0,92,0.00,,,0.00,5.00,VWS V14.00,2013-10-01 11:36:00,
2013-10-01 07:41:00,55.0,52.7,30.15,NE,41,0.0,0.0,92,0.00,,,0.00,7.00,VWS V14.00,2013-10-01 11:41:00,
2013-10-01 07:46:00,55.0,52.7,30.16,NE,41,0.0,0.0,92,0.00,,,0.00,11.00,VWS V14.00,2013-10-01 11:46:00,
2013-10-01 07:51:00,55.1,52.8,30.16,NE,41,0.0,0.0,92,0.00,,,0.00,12.00,VWS V14.00,2013-10-01 11:51:00,
2013-10-01 07:56:00,55.1,52.8,30.16,NE,41,0.0,0.0,92,0.00,,,0.00,16.00,VWS V14.00,2013-10-01 11:56:00,
2013-10-01 08:01:00,55.1,52.8,30.16,NE,41,0.0,0.0,92,0.00,,,0.00,18.00,VWS V14.00,2013-10-01 12:01:00,
2013-10-01 08:06:00,55.3,54.2,30.16,NE,41,0.0,0.0,96,0.00,,,0.00,23.00,VWS V14.00,2013-10-01 12:06:00,
2013-10-01 08:11:00,55.6,54.5,30.16,NE,41,0.0,0.0,96,0.00,,,0.00,25.00,VWS V14.00,2013-10-01 12:11:00,
2013-10-01 08:16:00,55.9,54.8,30.17,NE,41,0.0,0.0,96,0.00,,,0.00,28.00,VWS V14.00,2013-10-01 12:16:00,
2013-10-01 08:21:00,56.2,55.1,30.17,NE,41,0.0,0.0,96,0.00,,,0.00,28.00,VWS V14.00,2013-10-01 12:21:00,
2013-10-01 08:26:00,56.6,55.5,30.17,NE,41,0.0,0.0,96,0.00,,,0.00,30.00,VWS V14.00,2013-10-01 12:26:00,
2013-10-01 08:31:00,57.0,55.9,30.17,NE,41,0.0,0.0,96,0.00,,,0.00,32.00,VWS V14.00,2013-10-01 12:31:00,
2013-10-01 08:36:00,57.3,56.2,30.17,NE,41,0.0,0.0,96,0.00,,,0.00,33.00,VWS V14.00,2013-10-01 12:36:00,
2013-10-01 08:41:00,57.8,56.7,30.17,NE,41,0.0,0.0,96,0.00,,,0.00,33.00,VWS V14.00,2013-10-01 12:41:00,
2013-10-01 08:46:00,58.6,57.8,30.17,NE,41,0.0,0.0,97,0.00,,,0.00,35.00,VWS V14.00,2013-10-01 12:46:00,
2013-10-01 08:51:00,59.3,58.5,30.17,NE,41,0.0,0.0,97,0.00,,,0.00,218.00,VWS V14.00,2013-10-01 12:51:00,
2013-10-01 08:56:00,59.8,59.0,30.17,NE,41,0.0,0.0,97,0.00,,,0.00,234.00,VWS V14.00,2013-10-01 12:56:00,
2013-10-01 09:01:00,60.4,59.3,30.17,NE,41,0.0,0.0,96,0.00,,CLR,0.00,250.00,VWS V14.00,2013-10-01 13:01:00,
2013-10-01 09:06:00,60.9,59.8,30.17,NE,41,0.0,0.0,96,0.00,,CLR,0.00,264.00,VWS V14.00,2013-10-01 13:06:00,
2013-10-01 09:11:00,61.3,59.9,30.17,NE,41,0.0,0.0,95,0.00,,CLR,0.00,282.00,VWS V14.00,2013-10-01 13:11:00,
2013-10-01 09:16:00,62.0,60.0,30.17,NE,41,0.0,0.0,93,0.00,,CLR,0.00,299.00,VWS V14.00,2013-10-01 13:16:00,
2013-10-01 09:21:00,62.4,60.0,30.17,NE,40,0.0,0.0,92,0.00,,CLR,0.00,326.00,VWS V14.00,2013-10-01 13:21:00,
2013-10-01 09:26:00,63.1,60.1,30.17,NE,40,0.0,0.0,90,0.00,,CLR,0.00,347.00,VWS V14.00,2013-10-01 13:26:00,
2013-10-01 09:31:00,63.7,60.1,30.17,NE,40,0.0,0.0,88,0.00,,CLR,0.00,364.00,VWS V14.00,2013-10-01 13:31:00,
2013-10-01 09:36:00,64.3,59.7,30.17,NE,40,0.0,0.0,85,0.00,,CLR,0.00,378.00,VWS V14.00,2013-10-01 13:36:00,
2013-10-01 09:41:00,65.0,59.4,30.17,NE,41,0.0,0.0,82,0.00,,CLR,0.00,394.00,VWS V14.00,2013-10-01 13:41:00,
2013-10-01 09:46:00,65.8,59.8,30.18,NE,41,0.0,0.0,81,0.00,,CLR,0.00,412.00,VWS V14.00,2013-10-01 13:46:00,
2013-10-01 09:51:00,66.4,60.0,30.18,NE,41,0.0,0.0,80,0.00,,CLR,0.00,428.00,VWS V14.00,2013-10-01 13:51:00,
2013-10-01 09:56:00,66.9,59.1,30.18,NE,41,0.0,0.0,76,0.00,,CLR,0.00,442.00,VWS V14.00,2013-10-01 13:56:00,
2013-10-01 10:01:00,67.8,59.6,30.18,NE,41,0.0,0.0,75,0.00,,CLR,0.00,454.00,VWS V14.00,2013-10-01 14:01:00,
2013-10-01 10:06:00,68.4,60.2,30.18,NE,41,0.0,0.0,75,0.00,,CLR,0.00,472.00,VWS V14.00,2013-10-01 14:06:00,
2013-10-01 10:11:00,69.1,60.1,30.18,North,7,0.0,0.0,73,0.00,,CLR,0.00,489.00,VWS V14.00,2013-10-01 14:11:00,
2013-10-01 10:16:00,69.6,59.4,30.18,South,189,0.0,0.0,70,0.00,,CLR,0.00,505.00,VWS V14.00,2013-10-01 14:16:00,
2013-10-01 10:21:00,70.1,59.5,30.18,South,189,0.0,0.0,69,0.00,,CLR,0.00,519.00,VWS V14.00,2013-10-01 14:21:00,
2013-10-01 10:26:00,70.8,60.1,30.18,SSW,195,0.0,0.0,69,0.00,,CLR,0.00,531.00,VWS V14.00,2013-10-01 14:26:00,
2013-10-01 10:31:00,71.3,59.4,30.18,SSW,195,0.0,0.0,66,0.00,,CLR,0.00,547.00,VWS V14.00,2013-10-01 14:31:00,
2013-10-01 10:36:00,71.8,59.0,30.18,South,181,0.0,0.0,64,0.00,,CLR,0.00,558.00,VWS V14.00,2013-10-01 14:36:00,
2013-10-01 10:41:00,72.3,58.6,30.18,SSW,192,0.0,0.0,62,0.00,,CLR,0.00,570.00,VWS V14.00,2013-10-01 14:41:00,
2013-10-01 10:46:00,72.8,58.6,30.18,South,182,0.0,0.0,61,0.00,,CLR,0.00,584.00,VWS V14.00,2013-10-01 14:46:00,
2013-10-01 10:51:00,73.2,59.0,30.18,NNE,32,0.0,0.0,61,0.00,,CLR,0.00,596.00,VWS V14.00,2013-10-01 14:51:00,
2013-10-01 10:56:00,73.5,58.3,30.18,SSW,212,0.0,0.0,59,0.00,,CLR,0.00,609.00,VWS V14.00,2013-10-01 14:56:00,
2013-10-01 11:01:00,73.9,57.2,30.18,ESE,112,0.0,0.0,56,0.00,,CLR,0.00,623.00,VWS V14.00,2013-10-01 15:01:00,
2013-10-01 11:06:00,74.2,58.5,30.18,SSW,209,0.0,0.0,58,0.00,,CLR,0.00,632.00,VWS V14.00,2013-10-01 15:06:00,
2013-10-01 11:11:00,74.6,57.9,30.18,NW,318,0.0,0.0,56,0.00,,CLR,0.00,640.00,VWS V14.00,2013-10-01 15:11:00,
2013-10-01 11:16:00,74.9,57.7,30.18,WSW,239,0.0,5.0,55,0.00,,CLR,0.00,651.00,VWS V14.00,2013-10-01 15:16:00,
2013-10-01 11:21:00,75.3,58.5,30.18,NW,312,0.0,0.0,56,0.00,,CLR,0.00,660.00,VWS V14.00,2013-10-01 15:21:00,
2013-10-01 11:26:00,75.4,57.1,30.18,NW,312,0.0,1.0,53,0.00,,CLR,0.00,679.00,VWS V14.00,2013-10-01 15:26:00,
2013-10-01 11:31:00,75.8,58.5,30.17,ENE,72,0.0,0.0,55,0.00,,CLR,0.00,688.00,VWS V14.00,2013-10-01 15:31:00,
2013-10-01 11:36:00,75.8,58.0,30.17,South,184,0.0,0.0,54,0.00,,CLR,0.00,697.00,VWS V14.00,2013-10-01 15:36:00,
2013-10-01 11:41:00,76.0,57.7,30.17,South,178,0.0,0.0,53,0.00,,CLR,0.00,709.00,VWS V14.00,2013-10-01 15:41:00,
2013-10-01 11:46:00,76.3,58.5,30.17,ENE,58,0.0,0.0,54,0.00,,CLR,0.00,714.00,VWS V14.00,2013-10-01 15:46:00,
2013-10-01 11:52:00,76.7,57.8,30.17,NE,55,0.0,0.0,52,0.00,,CLR,0.00,725.00,VWS V14.00,2013-10-01 15:52:00,
2013-10-01 11:57:00,77.0,57.0,30.17,SW,223,0.0,0.0,50,0.00,,CLR,0.00,728.00,VWS V14.00,2013-10-01 15:57:00,
2013-10-01 12:02:00,77.0,57.5,30.17,NE,40,0.0,0.0,51,0.00,,CLR,0.00,737.00,VWS V14.00,2013-10-01 16:02:00,
2013-10-01 12:07:00,77.4,57.9,30.17,North,350,0.0,0.0,51,0.00,,CLR,0.00,758.00,VWS V14.00,2013-10-01 16:07:00,
2013-10-01 12:12:00,77.4,57.9,30.17,WNW,292,0.0,0.0,51,0.00,,CLR,0.00,778.00,VWS V14.00,2013-10-01 16:12:00,
2013-10-01 12:17:00,77.9,57.8,30.16,North,357,0.0,0.0,50,0.00,,CLR,0.00,760.00,VWS V14.00,2013-10-01 16:17:00,
2013-10-01 12:22:00,78.1,57.4,30.16,SSE,152,0.0,2.0,49,0.00,,CLR,0.00,779.00,VWS V14.00,2013-10-01 16:22:00,
2013-10-01 12:27:00,78.1,56.8,30.16,SW,229,1.0,4.0,48,0.00,,CLR,0.00,811.00,VWS V14.00,2013-10-01 16:27:00,
2013-10-01 12:31:00,78.1,58.5,30.16,WSW,241,0.0,0.0,51,0.00,,CLR,0.00,797.00,VWS V14.00,2013-10-01 16:31:00,
2013-10-01 12:36:00,78.5,58.9,30.16,WSW,237,0.0,0.0,51,0.00,,CLR,0.00,801.00,VWS V14.00,2013-10-01 16:36:00,
2013-10-01 12:41:00,78.6,56.7,30.16,NE,40,0.0,0.0,47,0.00,,CLR,0.00,823.00,VWS V14.00,2013-10-01 16:41:00,
2013-10-01 12:46:00,78.6,56.1,30.15,NE,37,0.0,0.0,46,0.00,,CLR,0.00,788.00,VWS V14.00,2013-10-01 16:46:00,
2013-10-01 12:51:00,78.8,55.7,30.15,NNE,17,0.0,0.0,45,0.00,,CLR,0.00,790.00,VWS V14.00,2013-10-01 16:51:00,
2013-10-01 12:56:00,79.2,55.4,30.15,NNE,13,0.0,0.0,44,0.00,,CLR,0.00,804.00,VWS V14.00,2013-10-01 16:56:00,
2013-10-01 13:01:00,79.2,55.4,30.14,ENE,61,0.0,0.0,44,0.00,,CLR,0.00,795.00,VWS V14.00,2013-10-01 17:01:00,
2013-10-01 13:06:00,79.2,54.8,30.14,SSW,192,0.0,0.0,43,0.00,,CLR,0.00,794.00,VWS V14.00,2013-10-01 17:06:00,
2013-10-01 13:11:00,79.9,56.7,30.14,East,99,0.0,0.0,45,0.00,,CLR,0.00,792.00,VWS V14.00,2013-10-01 17:11:00,
2013-10-01 13:17:00,79.9,56.1,30.14,SW,233,0.0,0.0,44,0.00,,CLR,0.00,797.00,VWS V14.00,2013-10-01 17:17:00,
2013-10-01 13:22:00,80.7,56.2,30.14,WSW,237,0.0,0.0,43,0.00,,CLR,0.00,797.00,VWS V14.00,2013-10-01 17:22:00,
2013-10-01 13:27:00,80.9,57.0,30.14,NNE,30,0.0,0.0,44,0.00,,CLR,0.00,804.00,VWS V14.00,2013-10-01 17:27:00,
2013-10-01 13:32:00,81.2,57.2,30.13,East,93,0.0,0.0,44,0.00,,CLR,0.00,799.00,VWS V14.00,2013-10-01 17:32:00,
2013-10-01 13:37:00,81.6,55.6,30.13,NE,45,0.0,0.0,41,0.00,,CLR,0.00,795.00,VWS V14.00,2013-10-01 17:37:00,
2013-10-01 13:42:00,81.8,55.1,30.13,NNW,343,0.0,0.0,40,0.00,,CLR,0.00,801.00,VWS V14.00,2013-10-01 17:42:00,
2013-10-01 13:47:00,82.0,56.0,30.12,WNW,294,0.0,1.0,41,0.00,,CLR,0.00,801.00,VWS V14.00,2013-10-01 17:47:00,
2013-10-01 13:52:00,82.0,57.3,30.12,ESE,117,0.0,0.0,43,0.00,,CLR,0.00,811.00,VWS V14.00,2013-10-01 17:52:00,
2013-10-01 13:57:00,82.2,55.5,30.12,ESE,113,4.0,5.0,40,0.00,,CLR,0.00,815.00,VWS V14.00,2013-10-01 17:57:00,
2013-10-01 14:02:00,81.8,55.8,30.11,NNE,18,0.0,0.0,41,0.00,,CLR,0.00,802.00,VWS V14.00,2013-10-01 18:02:00,
2013-10-01 14:07:00,81.8,55.1,30.11,NNE,18,0.0,0.0,40,0.00,,CLR,0.00,779.00,VWS V14.00,2013-10-01 18:07:00,
2013-10-01 14:12:00,81.8,54.5,30.11,ENE,75,0.0,0.0,39,0.00,,CLR,0.00,771.00,VWS V14.00,2013-10-01 18:12:00,
2013-10-01 14:17:00,81.8,54.5,30.11,West,278,0.0,0.0,39,0.00,,CLR,0.00,771.00,VWS V14.00,2013-10-01 18:17:00,
2013-10-01 14:22:00,82.0,55.3,30.11,NE,49,0.0,0.0,40,0.00,,CLR,0.00,767.00,VWS V14.00,2013-10-01 18:22:00,
2013-10-01 14:27:00,82.2,55.5,30.11,ENE,58,0.0,0.0,40,0.00,,CLR,0.00,774.00,VWS V14.00,2013-10-01 18:27:00,
2013-10-01 14:32:00,82.4,55.0,30.10,NE,52,0.0,0.0,39,0.00,,CLR,0.00,753.00,VWS V14.00,2013-10-01 18:32:00,
2013-10-01 14:37:00,82.6,54.5,30.10,SSE,151,0.0,2.0,38,0.00,,CLR,0.00,741.00,VWS V14.00,2013-10-01 18:37:00,
2013-10-01 14:42:00,82.8,56.0,30.10,NE,42,0.0,0.0,40,0.00,,CLR,0.00,734.00,VWS V14.00,2013-10-01 18:42:00,
2013-10-01 14:47:00,83.2,54.2,30.09,NNE,28,0.0,0.0,37,0.00,,CLR,0.00,714.00,VWS V14.00,2013-10-01 18:47:00,
2013-10-01 14:52:00,83.2,55.0,30.09,East,99,0.0,0.0,38,0.00,,CLR,0.00,725.00,VWS V14.00,2013-10-01 18:52:00,
2013-10-01 14:57:00,83.8,55.5,30.09,East,99,0.0,0.0,38,0.00,,CLR,0.00,711.00,VWS V14.00,2013-10-01 18:57:00,
2013-10-01 15:02:00,84.0,55.0,30.09,ENE,73,0.0,0.0,37,0.00,,FEW050,0.00,702.00,VWS V14.00,2013-10-01 19:02:00,
2013-10-01 15:07:00,84.0,55.7,30.09,NE,51,0.0,0.0,38,0.00,,FEW050,0.00,700.00,VWS V14.00,2013-10-01 19:07:00,
2013-10-01 15:12:00,83.8,54.8,30.09,NE,56,0.0,1.0,37,0.00,,FEW050,0.00,693.00,VWS V14.00,2013-10-01 19:12:00,
2013-10-01 15:17:00,83.8,54.8,30.09,ENE,72,0.0,1.0,37,0.00,,FEW050,0.00,690.00,VWS V14.00,2013-10-01 19:17:00,
2013-10-01 15:22:00,84.1,54.3,30.09,NE,35,0.0,0.0,36,0.00,,FEW050,0.00,663.00,VWS V14.00,2013-10-01 19:22:00,
2013-10-01 15:27:00,84.3,54.5,30.09,NE,35,0.0,0.0,36,0.00,,FEW050,0.00,651.00,VWS V14.00,2013-10-01 19:27:00,
2013-10-01 15:32:00,84.3,54.5,30.08,NE,35,0.0,0.0,36,0.00,,FEW050,0.00,640.00,VWS V14.00,2013-10-01 19:32:00,
2013-10-01 15:37:00,84.3,55.2,30.08,NE,51,0.0,0.0,37,0.00,,FEW050,0.00,628.00,VWS V14.00,2013-10-01 19:37:00,
2013-10-01 15:42:00,84.3,55.2,30.08,NE,51,0.0,0.0,37,0.00,,FEW050,0.00,612.00,VWS V14.00,2013-10-01 19:42:00,
2013-10-01 15:47:00,84.3,54.5,30.08,NE,49,0.0,0.0,36,0.00,,FEW050,0.00,602.00,VWS V14.00,2013-10-01 19:47:00,
2013-10-01 15:52:00,84.3,55.2,30.08,NE,54,0.0,0.0,37,0.00,,FEW050,0.00,586.00,VWS V14.00,2013-10-01 19:52:00,
2013-10-01 15:57:00,84.1,56.5,30.08,NE,49,0.0,0.0,39,0.00,,FEW050,0.00,577.00,VWS V14.00,2013-10-01 19:57:00,
2013-10-01 16:02:00,84.1,55.0,30.08,East,97,0.0,0.0,37,0.00,,CLR,0.00,561.00,VWS V14.00,2013-10-01 20:02:00,
2013-10-01 16:07:00,84.1,55.8,30.08,NE,52,0.0,0.0,38,0.00,,CLR,0.00,549.00,VWS V14.00,2013-10-01 20:07:00,
2013-10-01 16:12:00,84.1,55.0,30.08,SSW,193,0.0,2.0,37,0.00,,CLR,0.00,535.00,VWS V14.00,2013-10-01 20:12:00,
2013-10-01 16:40:00,83.2,55.0,30.07,East,100,0.0,0.0,38,0.00,,CLR,0.00,65.00,VWS V14.00,2013-10-01 20:40:00,
2013-10-01 16:45:00,82.8,53.9,30.06,SW,236,0.0,0.0,37,0.00,,CLR,0.00,241.00,VWS V14.00,2013-10-01 20:45:00,
2013-10-01 16:50:00,82.4,55.0,30.06,SW,236,0.0,0.0,39,0.00,,CLR,0.00,51.00,VWS V14.00,2013-10-01 20:50:00,
2013-10-01 16:55:00,81.8,54.5,30.06,SW,236,0.0,0.0,39,0.00,,CLR,0.00,56.00,VWS V14.00,2013-10-01 20:55:00,
2013-10-01 17:00:00,81.6,55.6,30.06,SW,236,0.0,0.0,41,0.00,,CLR,0.00,51.00,VWS V14.00,2013-10-01 21:00:00,
2013-10-01 17:05:00,81.2,55.3,30.06,SW,236,0.0,0.0,41,0.00,,CLR,0.00,49.00,VWS V14.00,2013-10-01 21:05:00,
2013-10-01 17:10:00,81.1,55.2,30.06,WSW,237,0.0,0.0,41,0.00,,CLR,0.00,46.00,VWS V14.00,2013-10-01 21:10:00,
2013-10-01 17:15:00,80.7,54.2,30.07,East,92,0.0,0.0,40,0.00,,CLR,0.00,44.00,VWS V14.00,2013-10-01 21:15:00,
2013-10-01 17:20:00,80.7,54.2,30.07,SSE,151,0.0,0.0,40,0.00,,CLR,0.00,44.00,VWS V14.00,2013-10-01 21:20:00,
2013-10-01 17:25:00,80.5,54.0,30.07,ENE,73,0.0,0.0,40,0.00,,CLR,0.00,97.00,VWS V14.00,2013-10-01 21:25:00,
2013-10-01 17:30:00,80.5,55.3,30.07,ENE,75,0.0,0.0,42,0.00,,CLR,0.00,188.00,VWS V14.00,2013-10-01 21:30:00,
2013-10-01 17:35:00,80.3,55.8,30.07,ENE,75,0.0,0.0,43,0.00,,CLR,0.00,40.00,VWS V14.00,2013-10-01 21:35:00,
2013-10-01 17:40:00,79.9,54.8,30.07,East,90,0.0,0.0,42,0.00,,CLR,0.00,39.00,VWS V14.00,2013-10-01 21:40:00,
2013-10-01 17:45:00,79.8,55.3,30.07,SSW,212,0.0,1.0,43,0.00,,CLR,0.00,37.00,VWS V14.00,2013-10-01 21:45:00,
2013-10-01 17:50:00,79.6,54.5,30.07,SSW,212,0.0,1.0,42,0.00,,CLR,0.00,35.00,VWS V14.00,2013-10-01 21:50:00,
2013-10-01 17:55:00,79.4,55.0,30.07,SSW,212,0.0,0.0,43,0.00,,CLR,0.00,35.00,VWS V14.00,2013-10-01 21:55:00,
2013-10-01 18:00:00,79.0,56.5,30.08,SSW,212,0.0,0.0,46,0.00,,CLR,0.00,33.00,VWS V14.00,2013-10-01 22:00:00,
2013-10-01 18:05:00,78.8,55.1,30.08,SSW,212,0.0,0.0,44,0.00,,CLR,0.00,32.00,VWS V14.00,2013-10-01 22:05:00,
2013-10-01 18:10:00,78.6,55.5,30.08,SSW,212,0.0,0.0,45,0.00,,CLR,0.00,30.00,VWS V14.00,2013-10-01 22:10:00,
2013-10-01 18:15:00,78.5,54.2,30.08,SSW,200,0.0,0.0,43,0.00,,CLR,0.00,28.00,VWS V14.00,2013-10-01 22:15:00,
2013-10-01 18:20:00,78.3,54.6,30.08,SSW,200,0.0,0.0,44,0.00,,CLR,0.00,28.00,VWS V14.00,2013-10-01 22:20:00,
2013-10-01 18:25:00,78.1,55.7,30.08,SSW,200,0.0,0.0,46,0.00,,CLR,0.00,26.00,VWS V14.00,2013-10-01 22:25:00,
2013-10-01 18:30:00,78.1,55.7,30.08,SSW,200,0.0,0.0,46,0.00,,CLR,0.00,25.00,VWS V14.00,2013-10-01 22:30:00,
2013-10-01 18:35:00,77.9,55.5,30.08,SSW,200,0.0,0.0,46,0.00,,CLR,0.00,21.00,VWS V14.00,2013-10-01 22:35:00,
2013-10-01 18:40:00,77.7,55.9,30.08,SSW,200,0.0,0.0,47,0.00,,CLR,0.00,19.00,VWS V14.00,2013-10-01 22:40:00,
2013-10-01 18:45:00,77.6,56.4,30.08,SSW,200,0.0,0.0,48,0.00,,CLR,0.00,18.00,VWS V14.00,2013-10-01 22:45:00,
2013-10-01 18:50:00,77.2,56.6,30.08,SSW,200,0.0,0.0,49,0.00,,CLR,0.00,14.00,VWS V14.00,2013-10-01 22:50:00,
2013-10-01 18:56:00,77.0,57.0,30.08,SSW,200,0.0,0.0,50,0.00,,CLR,0.00,12.00,VWS V14.00,2013-10-01 22:56:00,
2013-10-01 19:01:00,76.7,57.2,30.08,SSW,200,0.0,0.0,51,0.00,,CLR,0.00,11.00,VWS V14.00,2013-10-01 23:01:00,
2013-10-01 19:06:00,76.3,57.4,30.08,SSW,200,0.0,0.0,52,0.00,,CLR,0.00,7.00,VWS V14.00,2013-10-01 23:06:00,
2013-10-01 19:11:00,76.0,57.7,30.08,SSW,200,0.0,0.0,53,0.00,,CLR,0.00,5.00,VWS V14.00,2013-10-01 23:11:00,
2013-10-01 19:16:00,75.4,58.1,30.08,SSW,200,0.0,0.0,55,0.00,,CLR,0.00,0.00,VWS V14.00,2013-10-01 23:16:00,
2013-10-01 19:20:00,75.3,58.0,30.08,SSW,200,0.0,0.0,55,0.00,,CLR,0.00,0.00,VWS V14.00,2013-10-01 23:20:00,
2013-10-01 19:25:00,74.7,58.0,30.08,SSW,200,0.0,0.0,56,0.00,,CLR,0.00,0.00,VWS V14.00,2013-10-01 23:25:00,
2013-10-01 19:30:00,74.2,58.0,30.09,SSW,200,0.0,0.0,57,0.00,,CLR,0.00,0.00,VWS V14.00,2013-10-01 23:30:00,
2013-10-01 19:35:00,73.5,58.3,30.09,SSW,200,0.0,0.0,59,0.00,,CLR,0.00,0.00,VWS V14.00,2013-10-01 23:35:00,
2013-10-01 19:40:00,72.8,58.1,30.09,SSW,200,0.0,0.0,60,0.00,,CLR,0.00,0.00,VWS V14.00,2013-10-01 23:40:00,
2013-10-01 19:45:00,72.3,58.1,30.10,SSW,200,0.0,0.0,61,0.00,,CLR,0.00,0.00,VWS V14.00,2013-10-01 23:45:00,
2013-10-01 19:50:00,71.8,58.1,30.10,SSW,200,0.0,0.0,62,0.00,,CLR,0.00,0.00,VWS V14.00,2013-10-01 23:50:00,
2013-10-01 19:55:00,71.5,56.4,30.10,SSW,200,0.0,0.0,59,0.00,,CLR,0.00,0.00,VWS V14.00,2013-10-01 23:55:00,
2013-10-01 20:00:00,71.1,56.5,30.11,SSW,200,0.0,0.0,60,0.00,,CLR,0.00,0.00,VWS V14.00,2013-10-02 00:00:00,
2013-10-01 20:05:00,70.9,56.3,30.11,SSW,200,0.0,0.0,60,0.00,,CLR,0.00,0.00,VWS V14.00,2013-10-02 00:05:00,
2013-10-01 20:10:00,70.6,56.5,30.11,SSW,200,0.0,0.0,61,0.00,,CLR,0.00,0.00,VWS V14.00,2013-10-02 00:10:00,
2013-10-01 20:15:00,70.3,56.7,30.11,SSW,200,0.0,0.0,62,0.00,,CLR,0.00,0.00,VWS V14.00,2013-10-02 00:15:00,
2013-10-01 20:16:00,70.1,56.9,30.11,SSW,200,0.0,0.0,63,0.00,,CLR,0.00,0.00,VWS V14.00,2013-10-02 00:16:00,
2013-10-01 20:21:00,69.8,56.2,30.11,SSW,200,0.0,0.0,62,0.00,,CLR,0.00,0.00,VWS V14.00,2013-10-02 00:21:00,
2013-10-01 20:26:00,69.6,56.0,30.11,SSW,200,0.0,0.0,62,0.00,,CLR,0.00,0.00,VWS V14.00,2013-10-02 00:26:00,
2013-10-01 20:31:00,69.4,55.8,30.11,SSW,200,0.0,0.0,62,0.00,,CLR,0.00,0.00,VWS V14.00,2013-10-02 00:31:00,
2013-10-01 20:36:00,69.1,55.5,30.11,SSW,200,0.0,0.0,62,0.00,,CLR,0.00,0.00,VWS V14.00,2013-10-02 00:36:00,
2013-10-01 20:41:00,68.8,56.1,30.11,SSW,200,0.0,0.0,64,0.00,,CLR,0.00,0.00,VWS V14.00,2013-10-02 00:41:00,
2013-10-01 20:46:00,68.6,56.8,30.12,SSW,200,0.0,0.0,66,0.00,,CLR,0.00,0.00,VWS V14.00,2013-10-02 00:46:00,
2013-10-01 20:51:00,68.3,56.9,30.12,SSW,200,0.0,0.0,67,0.00,,CLR,0.00,0.00,VWS V14.00,2013-10-02 00:51:00,
2013-10-01 20:56:00,67.9,56.1,30.12,SSW,200,0.0,0.0,66,0.00,,CLR,0.00,0.00,VWS V14.00,2013-10-02 00:56:00,
2013-10-01 21:01:00,67.8,55.6,30.12,SSW,200,0.0,0.0,65,0.00,,CLR,0.00,0.00,VWS V14.00,2013-10-02 01:01:00,
2013-10-01 21:06:00,67.6,56.3,30.12,SSW,200,0.0,0.0,67,0.00,,CLR,0.00,0.00,VWS V14.00,2013-10-02 01:06:00,
2013-10-01 21:11:00,67.3,56.8,30.12,SSW,200,0.0,0.0,69,0.00,,CLR,0.00,0.00,VWS V14.00,2013-10-02 01:11:00,
2013-10-01 21:16:00,66.9,56.4,30.12,SSW,200,0.0,0.0,69,0.00,,CLR,0.00,0.00,VWS V14.00,2013-10-02 01:16:00,
2013-10-01 21:21:00,66.8,56.7,30.12,SSW,200,0.0,0.0,70,0.00,,CLR,0.00,0.00,VWS V14.00,2013-10-02 01:21:00,
2013-10-01 21:26:00,66.4,56.3,30.12,SSW,200,0.0,0.0,70,0.00,,CLR,0.00,0.00,VWS V14.00,2013-10-02 01:26:00,
2013-10-01 21:31:00,66.3,56.2,30.13,SSW,200,0.0,0.0,70,0.00,,CLR,0.00,0.00,VWS V14.00,2013-10-02 01:31:00,
2013-10-01 21:36:00,66.0,56.3,30.13,SSW,200,0.0,0.0,71,0.00,,CLR,0.00,0.00,VWS V14.00,2013-10-02 01:36:00,
2013-10-01 21:41:00,65.8,56.5,30.13,SSW,200,0.0,0.0,72,0.00,,CLR,0.00,0.00,VWS V14.00,2013-10-02 01:41:00,
2013-10-01 21:46:00,65.6,56.3,30.13,SSW,200,0.0,0.0,72,0.00,,CLR,0.00,0.00,VWS V14.00,2013-10-02 01:46:00,
2013-10-01 21:51:00,65.5,57.0,30.13,SSW,200,0.0,0.0,74,0.00,,CLR,0.00,0.00,VWS V14.00,2013-10-02 01:51:00,
2013-10-01 21:56:00,65.2,56.7,30.13,SSW,200,0.0,0.0,74,0.00,,CLR,0.00,0.00,VWS V14.00,2013-10-02 01:56:00,
2013-10-01 22:01:00,65.2,56.3,30.14,SSW,200,0.0,0.0,73,0.00,,CLR,0.00,0.00,VWS V14.00,2013-10-02 02:01:00,
2013-10-01 22:06:00,65.0,55.8,30.14,SSW,200,0.0,0.0,72,0.00,,CLR,0.00,0.00,VWS V14.00,2013-10-02 02:06:00,
2013-10-01 22:11:00,64.7,55.9,30.14,SSW,200,0.0,0.0,73,0.00,,CLR,0.00,0.00,VWS V14.00,2013-10-02 02:11:00,
2013-10-01 22:16:00,64.5,56.0,30.14,SSW,200,0.0,0.0,74,0.00,,CLR,0.00,0.00,VWS V14.00,2013-10-02 02:16:00,
2013-10-01 22:21:00,64.3,55.8,30.14,SSW,200,0.0,0.0,74,0.00,,CLR,0.00,0.00,VWS V14.00,2013-10-02 02:21:00,
2013-10-01 22:26:00,64.2,55.4,30.14,SSW,200,0.0,0.0,73,0.00,,CLR,0.00,0.00,VWS V14.00,2013-10-02 02:26:00,
2013-10-01 22:31:00,64.0,55.2,30.14,SSW,200,0.0,0.0,73,0.00,,CLR,0.00,0.00,VWS V14.00,2013-10-02 02:31:00,
2013-10-01 22:36:00,63.9,55.5,30.14,SSW,200,0.0,0.0,74,0.00,,CLR,0.00,0.00,VWS V14.00,2013-10-02 02:36:00,
2013-10-01 22:41:00,63.7,55.3,30.14,SSW,200,0.0,0.0,74,0.00,,CLR,0.00,0.00,VWS V14.00,2013-10-02 02:41:00,
2013-10-01 22:46:00,63.5,55.1,30.14,SSW,200,0.0,0.0,74,0.00,,CLR,0.00,0.00,VWS V14.00,2013-10-02 02:46:00,
2013-10-01 22:51:00,63.4,55.3,30.14,SSW,200,0.0,0.0,75,0.00,,CLR,0.00,0.00,VWS V14.00,2013-10-02 02:51:00,
2013-10-01 22:56:00,63.2,55.5,30.14,SSW,200,0.0,0.0,76,0.00,,CLR,0.00,0.00,VWS V14.00,2013-10-02 02:56:00,
2013-10-01 23:01:00,63.1,55.8,30.14,SSW,200,0.0,0.0,77,0.00,,CLR,0.00,0.00,VWS V14.00,2013-10-02 03:01:00,
2013-10-01 23:06:00,63.1,55.8,30.14,SSW,200,0.0,0.0,77,0.00,,CLR,0.00,0.00,VWS V14.00,2013-10-02 03:06:00,
2013-10-01 23:11:00,62.9,55.6,30.14,SSW,200,0.0,0.0,77,0.00,,CLR,0.00,0.00,VWS V14.00,2013-10-02 03:11:00,
2013-10-01 23:16:00,62.7,55.4,30.14,SSW,200,0.0,0.0,77,0.00,,CLR,0.00,0.00,VWS V14.00,2013-10-02 03:16:00,
2013-10-01 23:21:00,62.6,55.3,30.14,SSW,200,0.0,0.0,77,0.00,,CLR,0.00,0.00,VWS V14.00,2013-10-02 03:21:00,
2013-10-01 23:26:00,62.6,55.3,30.14,SSW,200,0.0,0.0,77,0.00,,CLR,0.00,0.00,VWS V14.00,2013-10-02 03:26:00,
2013-10-01 23:31:00,62.6,55.7,30.14,SSW,200,0.0,0.0,78,0.00,,CLR,0.00,0.00,VWS V14.00,2013-10-02 03:31:00,
2013-10-01 23:36:00,62.4,55.5,30.14,SSW,200,0.0,0.0,78,0.00,,CLR,0.00,0.00,VWS V14.00,2013-10-02 03:36:00,
2013-10-01 23:41:00,62.4,55.5,30.14,SSW,200,0.0,0.0,78,0.00,,,0.00,0.00,VWS V14.00,2013-10-02 03:41:00,
2013-10-01 23:46:00,62.4,55.5,30.15,SSW,200,0.0,0.0,78,0.00,,,0.00,0.00,VWS V14.00,2013-10-02 03:46:00,
2013-10-01 23:51:00,62.3,55.4,30.15,SSW,200,0.0,0.0,78,0.00,,,0.00,0.00,VWS V14.00,2013-10-02 03:51:00,
2013-10-01 23:56:00,62.3,55.7,30.15,SSW,200,0.0,0.0,79,0.00,,,0.00,0.00,VWS V14.00,2013-10-02 03:56:00,